Flight Track Log - Related Links

Times and Time Zones

All times are in EDT time to prevent confusion due to time zone crossing. See the MTN7305 flight status page for this flight to view local times or setup timezone preferences in your user account.

Time Position Orientation Groundspeed Altitude Reporting Facility
EDT Latitude Longitude Course Direction KTS MPH feet Rate Location/Type
Thu 11:04:13 PM 39.2000 -76.7000 322° Northwest 108 124 1,100  Level Potomac TRACON
Thu 11:05:07 PM 39.2167 -76.7167 322° Northwest 123 142 1,500 600 Climbing Potomac TRACON
Thu 11:06:13 PM 39.2500 -76.6833 38° Northeast 132 152 2,300 700 Climbing Potomac TRACON
Thu 11:07:07 PM 39.2667 -76.6500 57° Northeast 127 146 2,900 316 Climbing Potomac TRACON
Thu 11:08:07 PM 39.3000 -76.6000 49° Northeast 150 173 2,900  Level Potomac TRACON
Thu 11:09:13 PM 39.3167 -76.5667 57° Northeast 158 182 2,900 150 Level Potomac TRACON
Thu 11:10:07 PM 39.3500 -76.5167 49° Northeast 156 180 3,200 500 Climbing Potomac TRACON
Thu 11:11:13 PM 39.3833 -76.4833 38° Northeast 127 146 3,900 600 Climbing Potomac TRACON
Thu 11:12:07 PM 39.4000 -76.4500 57° Northeast 127 146 4,400 526 Climbing Potomac TRACON
Thu 11:13:07 PM 39.4167 -76.4167 57° Northeast 128 147 4,900 263 Climbing Potomac TRACON
Thu 11:14:01 PM 39.4500 -76.3833 38° Northeast 147 169 4,900  Level Potomac TRACON
Thu 11:15:01 PM 39.4667 -76.3500 57° Northeast 147 169 4,900 34 Level Potomac TRACON
Thu 11:16:58 PM 39.5167 -76.2667 52° Northeast 147 169 5,000 34 Climbing Philadelphia TRACON
Thu 11:17:58 PM 39.5500 -76.2333 38° Northeast 149 171 5,000  Level Philadelphia TRACON
Thu 11:18:58 PM 39.5833 -76.1833 49° Northeast 155 178 5,000 50 Level Philadelphia TRACON
Thu 11:19:58 PM 39.6000 -76.1333 67° East 155 178 5,100  Climbing Philadelphia TRACON
Thu 11:20:52 PM 39.6333 -76.1000 38° Northeast 157 181 5,000 -53 Descending Philadelphia TRACON
Thu 11:21:52 PM 39.6667 -76.0667 38° Northeast 156 180 5,000  Level Philadelphia TRACON
Thu 11:22:52 PM 39.6833 -76.0167 67° East 156 180 5,000  Level Philadelphia TRACON
Thu 11:23:53 PM 39.7167 -75.9667 49° Northeast 158 182 5,000  Level Philadelphia TRACON
Thu 11:24:53 PM 39.7500 -75.9333 38° Northeast 157 181 5,000  Level Philadelphia TRACON
Thu 11:25:53 PM 39.7833 -75.8833 49° Northeast 158 182 5,000  Level Philadelphia TRACON
Thu 11:26:47 PM 39.8000 -75.8500 57° Northeast 158 182 5,000  Level Philadelphia TRACON
Thu 11:27:53 PM 39.8333 -75.8000 49° Northeast 160 184 5,000  Level Philadelphia TRACON
Thu 11:28:53 PM 39.8667 -75.7500 49° Northeast 159 183 5,000  Level Philadelphia TRACON
Thu 11:29:53 PM 39.8833 -75.7167 57° Northeast 160 184 5,000  Level Philadelphia TRACON
Thu 11:30:53 PM 39.9167 -75.6667 49° Northeast 159 183 5,000  Level Philadelphia TRACON
Thu 11:31:53 PM 39.9500 -75.6167 49° Northeast 159 183 5,000  Level Philadelphia TRACON
Thu 11:32:53 PM 39.9667 -75.5667 66° East 161 185 5,000  Level Philadelphia TRACON
Thu 11:33:59 PM 39.9833 -75.5167 66° East 161 185 5,000  Level Philadelphia TRACON
Thu 11:34:59 PM 40.0167 -75.4667 49° Northeast 159 183 5,000  Level Philadelphia TRACON
Thu 11:35:59 PM 40.0333 -75.4167 66° East 160 184 5,000  Level Philadelphia TRACON
Thu 11:36:59 PM 40.0500 -75.3667 66° East 159 183 5,000  Level Philadelphia TRACON
Thu 11:38:00 PM 40.0833 -75.3167 49° Northeast 157 181 5,000  Level Philadelphia TRACON
Thu 11:39:00 PM 40.1000 -75.2667 66° East 158 182 5,000  Level Philadelphia TRACON
Thu 11:40:00 PM 40.1167 -75.2167 66° East 158 182 5,000  Level Philadelphia TRACON
Thu 11:41:00 PM 40.1333 -75.1667 66° East 156 180 5,000  Level Philadelphia TRACON
Thu 11:42:00 PM 40.1667 -75.1167 49° Northeast 156 180 5,000 48 Level Philadelphia TRACON
Thu 11:43:06 PM 40.1833 -75.0667 66° East 156 180 5,100 46 Climbing Philadelphia TRACON
Thu 11:44:10 PM 40.2167 -75.0167 49° Northeast 156 180 5,100  Level New York TRACON
Thu 11:45:16 PM 40.2333 -74.9500 72° East 157 181 5,100  Level New York TRACON
Thu 11:46:10 PM 40.2500 -74.9167 57° Northeast 157 181 5,100  Level New York TRACON
Thu 11:47:16 PM 40.2833 -74.8667 49° Northeast 157 181 5,100  Level New York TRACON
Thu 11:48:16 PM 40.3167 -74.8167 49° Northeast 157 181 5,100  Level New York TRACON
Thu 11:49:22 PM 40.3500 -74.7833 37° Northeast 154 177 5,100  Level New York TRACON
Thu 11:50:22 PM 40.3833 -74.7333 49° Northeast 156 180 5,100  Level New York TRACON
Thu 11:51:22 PM 40.4000 -74.7000 57° Northeast 157 181 5,100  Level New York TRACON
Thu 11:52:22 PM 40.4333 -74.6500 49° Northeast 158 182 5,100  Level New York TRACON
Thu 11:53:22 PM 40.4500 -74.6000 66° East 158 182 5,100  Level New York TRACON
Thu 11:54:22 PM 40.4833 -74.5667 37° Northeast 160 184 5,100  Level New York TRACON
Thu 11:55:16 PM 40.5333 -74.5500 14° North 162 186 5,100  Level New York TRACON
Thu 11:56:22 PM 40.5667 -74.5333 21° North 159 183 5,100  Level New York TRACON
Thu 11:57:22 PM 40.6167 -74.5167 14° North 159 183 5,100 -250 Level New York TRACON
Thu 11:58:22 PM 40.6667 -74.5000 14° North 170 196 4,600 -500 Descending New York TRACON
Thu 11:59:22 PM 40.7000 -74.4833 21° North 174 200 4,100 -263 Descending New York TRACON
Fri 12:00:16 AM 40.7500 -74.4667 14° North 161 185 4,100  Level New York TRACON
Fri 12:01:16 AM 40.7833 -74.4333 37° Northeast 153 176 4,100  Level New York TRACON
Fri 12:02:04 AM 40.8000 -74.4000 57° Northeast 154 177 4,100  Level New York TRACON
Fri 12:03:04 AM 40.8333 -74.3667 37° Northeast 158 182 4,100  Level New York TRACON
Fri 12:04:04 AM 40.8500 -74.3167 66° East 155 178 4,100  Level New York TRACON
Fri 12:05:10 AM 40.8500 -74.2500 90° East 156 180 4,100 -200 Level New York TRACON
Fri 12:06:04 AM 40.8500 -74.2000 90° East 166 191 3,700 -500 Descending New York TRACON
Fri 12:07:10 AM 40.8500 -74.1333 90° East 175 201 3,100 -571 Descending New York TRACON
Fri 12:08:10 AM 40.8000 -74.1000 153° Southeast 177 204 2,500 -600 Descending New York TRACON
Fri 12:09:10 AM 40.7667 -74.1167 201° Southwest 128 147 1,900 -727 Descending New York TRACON
Fri 12:10:22 AM 40.7333 -74.1333 201° Southwest 116 133 900 -727 Descending New York TRACON
Fri 12:11:22 AM 40.7000 -74.1500 201° Southwest 119 137 300 -600 Descending New York TRACON
Fri 12:13:00 AM 40.6833 -74.1667 149° Southeast  Level FlightAware Approximate
Fri 12:20:00 AM 40.6925 -74.1687 149° Southeast  Level Estimated

Login

Don't have an account? Register now (free) for customized features, flight alerts, and more!